createdAt,value
2019-06-01T00:01:32.857Z,16.17
2019-06-01T00:04:03.845Z,16.20
2019-06-01T00:06:34.527Z,16.26
2019-06-01T00:09:08.016Z,16.25
2019-06-01T00:11:39.443Z,16.23
2019-06-01T00:14:12.286Z,16.24
2019-06-01T00:16:44.419Z,16.18
2019-06-01T00:19:15.719Z,16.27
2019-06-01T00:21:47.406Z,16.22
2019-06-01T00:24:18.451Z,16.20
2019-06-01T00:26:49.884Z,16.19
2019-06-01T00:29:20.666Z,16.10
2019-06-01T00:31:52.212Z,16.10
2019-06-01T00:34:23.306Z,16.03
2019-06-01T00:36:54.272Z,15.93
2019-06-01T00:39:25.222Z,15.93
2019-06-01T00:41:55.931Z,15.87
2019-06-01T00:44:26.602Z,15.87
2019-06-01T00:46:57.617Z,15.94
2019-06-01T00:49:28.573Z,15.91
2019-06-01T00:51:59.265Z,15.89
2019-06-01T00:54:29.928Z,15.87
2019-06-01T00:57:00.905Z,15.79
2019-06-01T00:59:31.701Z,15.78
2019-06-01T01:02:02.733Z,15.73
2019-06-01T01:04:33.417Z,15.75
2019-06-01T01:07:04.160Z,15.73
2019-06-01T01:09:35.192Z,15.72
2019-06-01T01:12:06.281Z,15.70
2019-06-01T01:14:37.020Z,15.64
2019-06-01T01:17:07.968Z,15.60
2019-06-01T01:19:39.928Z,15.66
2019-06-01T01:22:10.867Z,15.56
2019-06-01T01:24:41.598Z,15.47
2019-06-01T01:27:12.265Z,15.55
2019-06-01T01:29:42.970Z,15.49
2019-06-01T01:32:13.947Z,15.45
2019-06-01T01:34:44.994Z,15.42
2019-06-01T01:37:15.704Z,15.38
2019-06-01T01:39:47.932Z,15.41
2019-06-01T01:42:18.767Z,15.45
2019-06-01T01:44:50.523Z,15.42
2019-06-01T01:47:23.175Z,15.40
2019-06-01T01:49:54.281Z,15.43
2019-06-01T01:52:25.514Z,15.40
2019-06-01T01:54:56.821Z,15.37
2019-06-01T01:57:27.862Z,15.43
2019-06-01T01:59:59.454Z,15.46
2019-06-01T02:02:30.178Z,15.50
2019-06-01T02:05:02.193Z,15.47
2019-06-01T02:07:34.065Z,15.45
2019-06-01T02:10:11.122Z,15.43
2019-06-01T02:12:41.811Z,15.43
2019-06-01T02:15:12.894Z,15.46
2019-06-01T02:17:43.596Z,15.39
2019-06-01T02:20:14.946Z,15.37
2019-06-01T02:22:45.932Z,15.35
2019-06-01T02:25:16.707Z,15.41
2019-06-01T02:27:47.772Z,15.45
2019-06-01T02:30:19.635Z,15.41
2019-06-01T02:32:50.295Z,15.37
2019-06-01T02:35:21.295Z,15.35
2019-06-01T02:37:52.332Z,15.32
2019-06-01T02:40:25.449Z,15.34
2019-06-01T02:42:57.226Z,15.36
2019-06-01T02:45:29.305Z,15.38
2019-06-01T02:48:01.559Z,15.41
2019-06-01T02:50:33.097Z,15.42
2019-06-01T02:53:05.678Z,15.37
2019-06-01T02:55:36.496Z,15.40
2019-06-01T02:58:07.481Z,15.38
2019-06-01T03:00:58.908Z,15.40
2019-06-01T03:03:29.931Z,15.32
2019-06-01T03:06:05.598Z,15.04
2019-06-01T03:08:38.342Z,15.15
2019-06-01T03:11:14.165Z,15.11
2019-06-01T03:13:48.863Z,15.18
2019-06-01T03:16:24.839Z,15.14
2019-06-01T03:18:59.693Z,15.30
2019-06-01T03:21:32.981Z,15.34
2019-06-01T03:24:08.210Z,15.35
2019-06-01T03:26:46.068Z,15.36
2019-06-01T03:29:19.991Z,15.35
2019-06-01T03:31:50.887Z,15.30
2019-06-01T03:34:21.631Z,15.22
2019-06-01T03:36:56.024Z,15.26
2019-06-01T03:39:25.397Z,15.23
2019-06-01T03:41:56.982Z,15.29
2019-06-01T03:44:27.735Z,15.35
2019-06-01T03:46:58.765Z,15.42
2019-06-01T03:49:29.441Z,15.50
2019-06-01T03:52:00.589Z,15.49
2019-06-01T03:54:31.731Z,15.61
2019-06-01T03:57:03.751Z,15.72
2019-06-01T03:59:36.429Z,15.63
2019-06-01T04:02:07.153Z,15.68
2019-06-01T04:04:38.100Z,15.76
2019-06-01T04:07:08.803Z,15.77
2019-06-01T04:09:39.495Z,15.89
2019-06-01T04:12:11.774Z,15.94
2019-06-01T04:14:43.020Z,16.11
2019-06-01T04:17:13.688Z,16.46
2019-06-01T04:19:44.713Z,16.64
2019-06-01T04:22:15.462Z,16.92
2019-06-01T04:24:47.607Z,17.37
2019-06-01T04:27:18.363Z,17.80
2019-06-01T04:29:49.315Z,18.11
2019-06-01T04:32:20.288Z,18.63
2019-06-01T04:34:51.377Z,18.98
2019-06-01T04:37:22.063Z,19.04
2019-06-01T04:39:53.269Z,19.62
2019-06-01T04:42:24.262Z,20.36
2019-06-01T04:44:55.303Z,20.53
2019-06-01T04:47:26.320Z,20.17
2019-06-01T04:49:58.054Z,20.18
2019-06-01T04:52:29.042Z,19.97
2019-06-01T04:55:00.304Z,19.75
2019-06-01T04:57:31.000Z,19.66
2019-06-01T05:00:03.546Z,19.37
2019-06-01T05:02:34.391Z,18.76
2019-06-01T05:05:09.291Z,18.61
2019-06-01T05:07:40.411Z,18.80
2019-06-01T05:10:11.685Z,18.90
2019-06-01T05:12:42.473Z,18.79
2019-06-01T05:15:16.062Z,18.91
2019-06-01T05:17:47.253Z,18.87
2019-06-01T05:20:19.671Z,19.09
2019-06-01T05:22:50.322Z,19.43
2019-06-01T05:25:21.195Z,19.60
2019-06-01T05:27:52.194Z,19.93
2019-06-01T05:30:26.315Z,20.30
2019-06-01T05:32:57.266Z,20.35
2019-06-01T05:35:28.331Z,20.42
2019-06-01T05:37:59.105Z,20.50
2019-06-01T05:40:30.217Z,20.48
2019-06-01T05:43:01.234Z,20.46
2019-06-01T05:45:32.195Z,20.78
2019-06-01T05:48:02.995Z,20.70
2019-06-01T05:50:33.790Z,20.84
2019-06-01T05:53:04.746Z,20.75
2019-06-01T05:55:35.403Z,20.84
2019-06-01T05:58:06.439Z,20.99
2019-06-01T06:00:41.148Z,21.26
2019-06-01T06:03:14.644Z,21.62
2019-06-01T06:05:44.786Z,22.15
2019-06-01T06:08:16.429Z,22.35
2019-06-01T06:10:47.114Z,22.63
2019-06-01T06:13:19.311Z,23.07
2019-06-01T06:15:50.560Z,23.14
2019-06-01T06:18:22.019Z,23.23
2019-06-01T06:20:53.189Z,22.86
2019-06-01T06:23:24.236Z,22.94
2019-06-01T06:25:55.357Z,22.99
2019-06-01T06:28:26.829Z,22.71
2019-06-01T06:30:57.849Z,22.98
2019-06-01T06:33:28.851Z,22.90
2019-06-01T06:35:59.679Z,22.81
2019-06-01T06:38:30.359Z,22.78
2019-06-01T06:41:01.373Z,23.08
2019-06-01T06:43:33.331Z,23.27
2019-06-01T06:46:04.337Z,23.38
2019-06-01T06:48:35.319Z,23.30
2019-06-01T06:51:06.139Z,23.26
2019-06-01T06:53:36.882Z,22.79
2019-06-01T06:56:07.947Z,23.03
2019-06-01T06:58:38.635Z,22.98
2019-06-01T07:01:11.999Z,22.73
2019-06-01T07:03:41.970Z,22.76
2019-06-01T07:06:12.630Z,22.84
2019-06-01T07:08:43.330Z,22.87
2019-06-01T07:11:14.011Z,23.04
2019-06-01T07:13:44.685Z,23.22
2019-06-01T07:16:15.641Z,23.50
2019-06-01T07:18:46.340Z,23.38
2019-06-01T07:21:17.027Z,23.31
2019-06-01T07:23:47.970Z,23.64
2019-06-01T07:26:19.876Z,23.80
2019-06-01T07:28:51.902Z,23.77
2019-06-01T07:31:24.155Z,23.35
2019-06-01T07:33:54.873Z,23.46
2019-06-01T07:36:26.720Z,23.60
2019-06-01T07:38:57.817Z,23.74
2019-06-01T07:41:28.870Z,24.37
2019-06-01T07:43:59.884Z,24.90
2019-06-01T07:46:30.557Z,25.37
2019-06-01T07:49:01.536Z,25.57
2019-06-01T07:51:32.195Z,25.82
2019-06-01T07:54:03.205Z,26.10
2019-06-01T07:56:33.876Z,26.55
2019-06-01T07:59:04.926Z,27.30
2019-06-01T08:01:35.664Z,28.30
2019-06-01T08:04:06.336Z,29.21
2019-06-01T08:06:43.921Z,30.76
2019-06-01T08:09:09.950Z,31.76
2019-06-01T08:11:40.903Z,32.37
2019-06-01T08:14:11.794Z,33.01
2019-06-01T08:16:43.451Z,32.74
2019-06-01T08:19:14.417Z,31.75
2019-06-01T08:21:45.386Z,31.37
2019-06-01T08:24:16.462Z,27.53
2019-06-01T08:26:47.509Z,28.08
2019-06-01T08:29:18.205Z,28.24
2019-06-01T08:31:49.217Z,28.12
2019-06-01T08:34:20.152Z,28.09
2019-06-01T08:36:51.264Z,28.61
2019-06-01T08:39:23.365Z,29.23
2019-06-01T08:41:54.209Z,28.07
2019-06-01T08:44:25.458Z,28.00
2019-06-01T08:46:56.189Z,28.49
2019-06-01T08:49:28.028Z,27.80
2019-06-01T08:51:58.817Z,26.96
2019-06-01T08:54:30.282Z,26.31
2019-06-01T08:57:01.616Z,26.23
2019-06-01T08:59:32.630Z,25.93
2019-06-01T09:02:03.865Z,27.05
2019-06-01T09:04:34.971Z,28.43
2019-06-01T09:07:06.117Z,29.47
2019-06-01T09:09:36.819Z,29.97
2019-06-01T09:12:07.944Z,30.82
2019-06-01T09:14:38.702Z,30.54
2019-06-01T09:17:09.676Z,28.91
2019-06-01T09:19:40.658Z,28.25
2019-06-01T09:22:11.591Z,27.96
2019-06-01T09:24:42.569Z,27.48
2019-06-01T09:27:14.294Z,26.87
2019-06-01T09:29:45.286Z,26.60
2019-06-01T09:32:16.205Z,25.81
2019-06-01T09:34:46.933Z,25.53
2019-06-01T09:37:17.892Z,25.42
2019-06-01T09:39:48.625Z,26.04
2019-06-01T09:42:19.625Z,27.33
2019-06-01T09:44:50.305Z,28.50
2019-06-01T09:47:22.249Z,28.67
2019-06-01T09:49:53.168Z,28.58
2019-06-01T09:52:23.877Z,28.81
2019-06-01T09:54:54.536Z,29.50
2019-06-01T09:57:25.496Z,30.34
2019-06-01T09:59:56.231Z,30.52
2019-06-01T10:02:28.056Z,30.78
2019-06-01T10:04:58.813Z,30.80
2019-06-01T10:07:30.848Z,30.35
2019-06-01T10:10:02.682Z,29.60
2019-06-01T10:12:33.935Z,29.13
2019-06-01T10:15:06.106Z,28.22
2019-06-01T10:17:37.151Z,27.71
2019-06-01T10:20:09.686Z,27.83
2019-06-01T10:22:41.687Z,29.18
2019-06-01T10:25:13.455Z,30.14
2019-06-01T10:27:44.489Z,30.61
2019-06-01T10:30:15.825Z,30.52
2019-06-01T10:32:46.863Z,29.97
2019-06-01T10:35:17.953Z,29.92
2019-06-01T10:37:48.651Z,28.75
2019-06-01T10:40:19.466Z,28.43
2019-06-01T10:42:50.447Z,28.25
2019-06-01T10:45:21.501Z,28.33
2019-06-01T10:47:52.170Z,28.18
2019-06-01T10:50:23.134Z,28.62
2019-06-01T10:52:54.100Z,29.74
2019-06-01T10:55:25.133Z,30.31
2019-06-01T10:57:57.120Z,30.13
2019-06-01T11:00:39.753Z,30.20
2019-06-01T11:03:00.798Z,30.10
2019-06-01T11:05:32.550Z,29.34
2019-06-01T11:08:03.625Z,28.82
2019-06-01T11:10:34.940Z,29.27
2019-06-01T11:13:05.932Z,29.90
2019-06-01T11:15:37.000Z,30.61
2019-06-01T11:18:07.994Z,31.45
2019-06-01T11:20:39.385Z,31.11
2019-06-01T11:23:10.098Z,30.27
2019-06-01T11:25:41.677Z,30.44
2019-06-01T11:28:12.696Z,30.38
2019-06-01T11:30:43.950Z,30.16
2019-06-01T11:33:15.033Z,29.63
2019-06-01T11:35:45.976Z,29.42
2019-06-01T11:38:19.610Z,29.91
2019-06-01T11:40:50.536Z,29.63
2019-06-01T11:43:22.186Z,28.81
2019-06-01T11:45:53.149Z,29.46
2019-06-01T11:48:23.859Z,29.24
2019-06-01T11:50:54.801Z,29.37
2019-06-01T11:53:25.819Z,29.33
2019-06-01T11:55:57.389Z,29.21
2019-06-01T11:58:28.131Z,28.55
2019-06-01T12:00:58.820Z,28.77
2019-06-01T12:03:29.492Z,28.95
2019-06-01T12:06:01.440Z,29.20
2019-06-01T12:08:34.082Z,29.25
2019-06-01T12:11:05.200Z,29.25
2019-06-01T12:13:36.159Z,29.26
2019-06-01T12:16:07.110Z,28.78
2019-06-01T12:18:38.515Z,28.76
2019-06-01T12:21:10.436Z,28.72
2019-06-01T12:23:41.574Z,28.55
2019-06-01T12:26:12.258Z,28.44
2019-06-01T12:28:43.819Z,28.40
2019-06-01T12:31:14.615Z,28.23
2019-06-01T12:33:46.586Z,28.26
2019-06-01T12:36:17.281Z,28.39
2019-06-01T12:38:52.376Z,28.36
2019-06-01T12:41:25.338Z,28.33
2019-06-01T12:44:08.109Z,28.37
2019-06-01T12:46:39.939Z,28.50
2019-06-01T12:49:11.743Z,28.06
2019-06-01T12:51:44.391Z,28.35
2019-06-01T12:54:15.863Z,28.35
2019-06-01T12:56:47.842Z,28.70
2019-06-01T12:59:19.336Z,28.73
2019-06-01T13:01:51.292Z,28.61
2019-06-01T13:04:22.317Z,28.66
2019-06-01T13:06:54.172Z,28.78
2019-06-01T13:09:25.224Z,28.52
2019-06-01T13:11:55.947Z,28.23
2019-06-01T13:14:26.620Z,27.43
2019-06-01T13:17:06.812Z,27.24
2019-06-01T13:19:30.259Z,27.64
2019-06-01T13:22:01.051Z,27.60
2019-06-01T13:24:32.589Z,27.65
2019-06-01T13:27:03.544Z,27.92
2019-06-01T13:29:34.635Z,27.95
2019-06-01T13:32:05.460Z,27.85
2019-06-01T13:34:36.448Z,27.96
2019-06-01T13:37:07.489Z,27.94
2019-06-01T13:39:38.250Z,27.97
2019-06-01T13:42:09.177Z,27.97
2019-06-01T13:44:40.126Z,27.90
2019-06-01T13:47:10.816Z,28.00
2019-06-01T13:49:41.480Z,28.08
2019-06-01T13:52:12.187Z,28.05
2019-06-01T13:54:44.063Z,28.01
2019-06-01T13:57:14.846Z,28.02
2019-06-01T13:59:46.884Z,28.01
2019-06-01T14:02:17.574Z,27.83
2019-06-01T14:04:49.810Z,27.93
2019-06-01T14:07:20.814Z,28.04
2019-06-01T14:09:52.150Z,28.10
2019-06-01T14:12:23.962Z,28.10
2019-06-01T14:14:55.593Z,28.13
2019-06-01T14:17:26.772Z,28.16
2019-06-01T14:19:57.470Z,28.16
2019-06-01T14:22:28.166Z,27.93
2019-06-01T14:25:10.452Z,27.99
2019-06-01T14:27:31.237Z,28.06
2019-06-01T14:30:02.306Z,28.19
2019-06-01T14:32:34.342Z,28.30
2019-06-01T14:35:07.810Z,28.15
2019-06-01T14:37:38.767Z,28.15
2019-06-01T14:40:11.001Z,28.01
2019-06-01T14:42:42.094Z,28.16
2019-06-01T14:45:13.543Z,28.23
2019-06-01T14:47:47.082Z,28.26
2019-06-01T14:50:18.130Z,28.25
2019-06-01T14:52:49.609Z,28.06
2019-06-01T14:55:20.756Z,28.20
2019-06-01T14:57:52.421Z,28.27
2019-06-01T15:00:23.720Z,27.98
2019-06-01T15:02:54.852Z,27.87
2019-06-01T15:05:25.550Z,27.87
2019-06-01T15:07:57.047Z,27.82
2019-06-01T15:10:28.343Z,28.02
2019-06-01T15:13:03.028Z,27.81
2019-06-01T15:15:31.747Z,27.71
2019-06-01T15:18:05.118Z,27.81
2019-06-01T15:20:35.261Z,27.84
2019-06-01T15:23:06.269Z,27.84
2019-06-01T15:25:36.957Z,27.97
2019-06-01T15:28:07.635Z,27.97
2019-06-01T15:30:38.585Z,28.02
2019-06-01T15:33:09.382Z,27.87
2019-06-01T15:35:40.373Z,27.93
2019-06-01T15:38:11.117Z,27.88
2019-06-01T15:40:42.125Z,27.84
2019-06-01T15:43:13.068Z,27.75
2019-06-01T15:45:44.131Z,27.55
2019-06-01T15:48:14.901Z,27.48
2019-06-01T15:50:45.550Z,27.58
2019-06-01T15:53:16.256Z,27.64
2019-06-01T15:55:47.259Z,27.62
2019-06-01T15:58:18.470Z,27.58
2019-06-01T16:00:49.476Z,27.51
2019-06-01T16:03:20.465Z,27.62
2019-06-01T16:05:52.922Z,27.64
2019-06-01T16:08:23.670Z,27.52
2019-06-01T16:10:55.199Z,27.39
2019-06-01T16:13:26.273Z,27.37
2019-06-01T16:15:58.448Z,27.23
2019-06-01T16:18:29.544Z,27.24
2019-06-01T16:21:00.613Z,27.40
2019-06-01T16:23:46.207Z,27.35
2019-06-01T16:26:15.159Z,27.28
2019-06-01T16:28:36.428Z,27.33
2019-06-01T16:31:07.104Z,27.27
2019-06-01T16:33:37.781Z,27.32
2019-06-01T16:36:08.791Z,27.19
2019-06-01T16:38:40.876Z,27.10
2019-06-01T16:41:11.576Z,27.04
2019-06-01T16:43:42.254Z,26.99
2019-06-01T16:46:12.933Z,27.08
2019-06-01T16:48:44.049Z,26.96
2019-06-01T16:51:14.715Z,27.04
2019-06-01T16:53:45.366Z,26.82
2019-06-01T16:56:16.060Z,26.86
2019-06-01T16:58:46.778Z,26.85
2019-06-01T17:01:17.455Z,26.87
2019-06-01T17:03:48.421Z,26.84
2019-06-01T17:06:19.462Z,26.88
2019-06-01T17:08:50.160Z,26.86
2019-06-01T17:11:21.227Z,26.68
2019-06-01T17:16:22.221Z,26.81
2019-06-01T17:18:53.380Z,26.83
2019-06-01T17:21:24.517Z,26.67
2019-06-01T17:23:55.743Z,26.64
2019-06-01T17:26:26.417Z,26.71
2019-06-01T17:28:58.036Z,26.56
2019-06-01T17:31:28.829Z,26.56
2019-06-01T17:34:00.644Z,26.56
2019-06-01T17:36:31.615Z,26.57
2019-06-01T17:39:03.717Z,26.45
2019-06-01T17:41:34.805Z,26.43
2019-06-01T17:44:13.184Z,26.39
2019-06-01T17:46:53.633Z,26.42
2019-06-01T17:49:16.663Z,26.35
2019-06-01T17:51:47.331Z,26.38
2019-06-01T17:54:18.067Z,26.32
2019-06-01T17:56:49.065Z,26.33
2019-06-01T17:59:21.235Z,26.37
2019-06-01T18:01:52.252Z,26.10
2019-06-01T18:04:24.253Z,26.02
2019-06-01T18:06:55.273Z,26.08
2019-06-01T18:09:26.313Z,26.05
2019-06-01T18:11:57.357Z,25.87
2019-06-01T18:14:28.371Z,25.96
2019-06-01T18:16:59.409Z,25.85
2019-06-01T18:19:30.373Z,25.74
2019-06-01T18:22:01.068Z,25.74
2019-06-01T18:24:32.047Z,25.61
2019-06-01T18:27:02.759Z,25.58
2019-06-01T18:29:33.484Z,25.51
2019-06-01T18:32:05.771Z,25.44
2019-06-01T18:34:37.202Z,25.46
2019-06-01T18:37:09.215Z,25.30
2019-06-01T18:39:40.118Z,25.26
2019-06-01T18:42:12.356Z,25.12
2019-06-01T18:44:43.458Z,25.05
2019-06-01T18:47:31.278Z,25.01
2019-06-01T18:49:48.370Z,24.95
2019-06-01T18:52:19.400Z,24.89
2019-06-01T18:54:50.090Z,24.83
2019-06-01T18:57:21.755Z,24.78
2019-06-01T18:59:52.863Z,24.71
2019-06-01T19:02:23.572Z,24.66
2019-06-01T19:04:54.638Z,24.60
2019-06-01T19:07:25.304Z,24.55
2019-06-01T19:09:56.279Z,24.48
2019-06-01T19:12:27.249Z,24.36
2019-06-01T19:14:57.973Z,24.31
2019-06-01T19:17:29.135Z,24.21
2019-06-01T19:19:59.817Z,24.17
2019-06-01T19:22:30.876Z,24.04
2019-06-01T19:25:02.404Z,23.92
2019-06-01T19:27:34.039Z,23.83
2019-06-01T19:30:08.880Z,23.72
2019-06-01T19:32:40.578Z,23.67
2019-06-01T19:35:13.566Z,23.48
2019-06-01T19:37:44.643Z,23.43
2019-06-01T19:40:20.264Z,23.32
2019-06-01T19:42:51.104Z,23.19
2019-06-01T19:45:28.851Z,23.08
2019-06-01T19:47:54.595Z,22.98
2019-06-01T19:50:25.769Z,22.90
2019-06-01T19:52:57.064Z,22.80
2019-06-01T19:55:27.836Z,22.69
2019-06-01T19:57:58.559Z,22.62
2019-06-01T20:00:31.020Z,22.56
2019-06-01T20:03:02.188Z,22.46
2019-06-01T20:05:33.020Z,22.32
2019-06-01T20:08:03.691Z,22.30
2019-06-01T20:10:34.513Z,22.23
2019-06-01T20:13:05.340Z,22.18
2019-06-01T20:15:36.329Z,22.11
2019-06-01T20:18:07.292Z,22.03
2019-06-01T20:20:38.337Z,21.98
2019-06-01T20:23:09.560Z,21.90
2019-06-01T20:25:40.580Z,21.93
2019-06-01T20:28:11.870Z,21.79
2019-06-01T20:30:44.141Z,21.76
2019-06-01T20:33:15.990Z,21.65
2019-06-01T20:35:47.019Z,21.54
2019-06-01T20:38:18.483Z,21.50
2019-06-01T20:40:49.784Z,21.45
2019-06-01T20:43:20.910Z,21.41
2019-06-01T20:45:56.665Z,21.06
2019-06-01T20:48:26.676Z,21.25
2019-06-01T20:50:57.593Z,21.17
2019-06-01T20:53:28.533Z,21.17
2019-06-01T20:55:59.516Z,21.11
2019-06-01T20:58:30.588Z,21.04
2019-06-01T21:01:01.283Z,20.95
2019-06-01T21:03:32.590Z,20.87
2019-06-01T21:06:03.279Z,20.90
2019-06-01T21:08:34.048Z,20.86
2019-06-01T21:11:05.176Z,20.83
2019-06-01T21:13:36.191Z,20.75
2019-06-01T21:16:06.899Z,20.67
2019-06-01T21:18:37.619Z,20.63
2019-06-01T21:21:09.275Z,20.58
2019-06-01T21:23:39.980Z,20.60
2019-06-01T21:26:10.997Z,20.55
2019-06-01T21:28:41.686Z,20.48
2019-06-01T21:31:12.795Z,20.47
2019-06-01T21:33:43.755Z,20.43
2019-06-01T21:36:15.238Z,20.34
2019-06-01T21:38:46.337Z,20.35
2019-06-01T21:41:17.452Z,20.28
2019-06-01T21:43:48.567Z,20.24
2019-06-01T21:46:19.710Z,20.16
2019-06-01T21:48:50.403Z,20.16
2019-06-01T21:51:21.842Z,20.13
2019-06-01T21:53:52.575Z,20.08
2019-06-01T21:56:25.253Z,19.98
2019-06-01T21:58:57.331Z,19.93
2019-06-01T22:01:28.414Z,19.99
2019-06-01T22:03:59.390Z,19.92
2019-06-01T22:06:30.174Z,19.86
2019-06-01T22:09:00.874Z,19.81
2019-06-01T22:11:33.459Z,19.77
2019-06-01T22:14:04.675Z,19.62
2019-06-01T22:16:35.603Z,19.53
2019-06-01T22:19:06.651Z,19.50
2019-06-01T22:21:37.637Z,19.46
2019-06-01T22:24:08.619Z,19.39
2019-06-01T22:26:39.605Z,19.37
2019-06-01T22:29:10.552Z,19.42
2019-06-01T22:31:41.544Z,19.41
2019-06-01T22:34:12.488Z,19.28
2019-06-01T22:36:43.196Z,19.25
2019-06-01T22:39:15.258Z,19.22
2019-06-01T22:41:47.840Z,19.20
2019-06-01T22:44:18.648Z,19.13
2019-06-01T22:46:50.747Z,19.05
2019-06-01T22:49:24.733Z,19.02
2019-06-01T22:51:55.987Z,19.01
2019-06-01T22:54:27.768Z,19.01
2019-06-01T22:56:58.808Z,19.02
2019-06-01T22:59:29.634Z,18.99
2019-06-01T23:02:00.624Z,18.97
2019-06-01T23:04:31.547Z,18.92
2019-06-01T23:07:02.699Z,18.89
2019-06-01T23:09:33.665Z,18.80
2019-06-01T23:12:04.595Z,18.78
2019-06-01T23:14:35.654Z,18.76
2019-06-01T23:17:06.423Z,18.74
2019-06-01T23:19:37.394Z,18.71
2019-06-01T23:22:08.365Z,18.71
2019-06-01T23:24:39.703Z,18.62
2019-06-01T23:27:10.408Z,18.59
2019-06-01T23:29:41.696Z,18.50
2019-06-01T23:32:12.691Z,18.44
2019-06-01T23:34:43.354Z,18.43
2019-06-01T23:37:14.057Z,18.32
2019-06-01T23:39:44.876Z,18.30
2019-06-01T23:42:16.248Z,18.25
2019-06-01T23:44:47.223Z,18.25
2019-06-01T23:47:17.959Z,18.29
2019-06-01T23:49:48.742Z,18.30
2019-06-01T23:52:19.684Z,18.23
2019-06-01T23:54:50.590Z,18.12
2019-06-01T23:57:21.547Z,18.08
2019-06-01T23:59:53.475Z,18.05
